Thunder radar more information blitzortung!


Radar de pluja more information rain snow radar


Visita la nostra xarxa de llocs de meteo:

Template documentation
and downloads

And another site



No particular awareness of the weather is required.    There are no Weather-warnings

Pagina Historial Weather Underground text

Diari Resum Juny 30, 2017 Unitats:  Mètric    Imperial   Tant
« Previous Dia
SegĂźent Dia »
Diari Setmana Mensual Anual Personalitzada
  Maxima: Minima: Media:
Temperatura: -17.8 °C -9.3 °C -5.2 °C
Punt de rosada: -17.8 °C -15.7 °C -14.5 °C
Humitat: Humidity % 25 % 35 %
Wind Speed: 0 km/h 0 km/h 13.5 km/h
RĂ fegues de vent: 0 km/h - -
Vent:- - SW
Pression baro: 0 hPa 34164.7 hPa -
Precipitacions: 0 mm    
Historical Graphs
 
 
Dades de taula per Juny 30, 2017
Temps Temperatura Punt de rosada Pression baro Vent Wind Speed RĂ fegues de vent Humitat Rainfall Rate (Hourly)
-17.8 °C -17.8 °C 0 hPa Calm     Humidity % 0 mm
00:02 -6.8 °C -12.9 °C 34164.7 hPa ESE 9 km/h 9 km/h 49 % 0 mm
00:05 -8.7 °C -14.2 °C 34198.6 hPa NNE 2.6 km/h 7.7 km/h 52 % 0 mm
00:07 -6.9 °C -13 °C 34164.7 hPa ESE 19.2 km/h 19.2 km/h 49 % 0 mm
00:12 -7.1 °C -13.2 °C 34198.6 hPa ESE 11.9 km/h 11.9 km/h 49 % 0 mm
00:15 -8.6 °C -14.1 °C 34198.6 hPa NW 2.6 km/h 2.6 km/h 52 % 0 mm
00:25 -8.6 °C -14.1 °C 34198.6 hPa NNW 2.6 km/h 5.1 km/h 52 % 0 mm
00:35 -8.5 °C -14 °C 34198.6 hPa NNE 5.1 km/h 7.7 km/h 52 % 0 mm
00:45 -8.6 °C -14.1 °C 34198.6 hPa Calm   2.6 km/h 52 % 0 mm
00:55 -8.7 °C -14.2 °C 34198.6 hPa Calm     52 % 0 mm
01:05 -8.7 °C -14.1 °C 34198.6 hPa Calm   5.1 km/h 53 % 0 mm
01:15 -8.8 °C -14.1 °C 34198.6 hPa Calm   2.6 km/h 53 % 0 mm
01:25 -9.2 °C -14.5 °C 34222.3 hPa WSW 5.1 km/h 7.7 km/h 53 % 0 mm
01:35 -9.3 °C -14.5 °C 34222.3 hPa SW 2.6 km/h 5.1 km/h 54 % 0 mm
01:45 -9.3 °C -14.4 °C 34222.3 hPa SW 5.1 km/h 7.7 km/h 54 % 0 mm
01:55 -9.3 °C -14.4 °C 34222.3 hPa WSW 2.6 km/h 7.7 km/h 54 % 0 mm
02:05 -9.3 °C -14.3 °C 34222.3 hPa Calm   2.6 km/h 55 % 0 mm
02:15 -9.3 °C -14.3 °C 34222.3 hPa Calm     55 % 0 mm
02:25 -9.1 °C -14.1 °C 34222.3 hPa WSW 2.6 km/h 5.1 km/h 55 % 0 mm
02:35 -8.9 °C -13.9 °C 34256.2 hPa WSW 5.1 km/h 5.1 km/h 55 % 0 mm
02:45 -8.5 °C -13.6 °C 34256.2 hPa Calm   5.1 km/h 55 % 0 mm
02:55 -8.1 °C -13.3 °C 34256.2 hPa SW 2.6 km/h 5.1 km/h 54 % 0 mm
03:05 -8 °C -13.2 °C 34256.2 hPa South 2.6 km/h 5.1 km/h 54 % 0 mm
03:15 -7.7 °C -13.1 °C 34256.2 hPa SSE 5.1 km/h 5.1 km/h 53 % 0 mm
03:25 -7.5 °C -12.9 °C 34256.2 hPa Calm   5.1 km/h 53 % 0 mm
03:35 -7.7 °C -13.1 °C 34222.3 hPa SW 2.6 km/h 7.7 km/h 53 % 0 mm
03:45 -7.5 °C -13.1 °C 34222.3 hPa SW 5.1 km/h 7.7 km/h 52 % 0 mm
03:55 -7.1 °C -12.9 °C 34256.2 hPa Calm   5.1 km/h 51 % 0 mm
04:05 -6.7 °C -12.6 °C 34256.2 hPa NNW 2.6 km/h 7.7 km/h 51 % 0 mm
04:15 -6.3 °C -12.3 °C 34256.2 hPa ENE 2.6 km/h 7.7 km/h 50 % 0 mm
04:25 -6.3 °C -12.4 °C 34256.2 hPa East 7.7 km/h 10.3 km/h 49 % 0 mm
04:35 -6 °C -12.4 °C 34256.2 hPa ENE 5.1 km/h 5.1 km/h 48 % 0 mm
04:45 -6 °C -12.7 °C 34256.2 hPa SW 7.7 km/h 10.3 km/h 46 % 0 mm
09:48 -5.9 °C -13 °C 34293.4 hPa WSW 6 km/h 6.8 km/h 44 % 0 mm
09:53 -6 °C -13.3 °C 34293.4 hPa WNW 15 km/h 15 km/h 43 % 0 mm
09:58 -5.7 °C -13 °C 34293.4 hPa West 6.8 km/h 6.8 km/h 43 % 0 mm
10:03 -5.7 °C -13.2 °C 34293.4 hPa WSW 15 km/h 15 km/h 42 % 0 mm
10:08 -5.5 °C -13 °C 34293.4 hPa WSW 6.3 km/h 6.3 km/h 42 % 0 mm
10:13 -5.7 °C -13.2 °C 34256.2 hPa SSW 15 km/h 15 km/h 42 % 0 mm
10:18 -5.3 °C -12.8 °C 34256.2 hPa WSW 9 km/h 9 km/h 42 % 0 mm
10:23 -5.4 °C -13.1 °C 34256.2 hPa WNW 17.9 km/h 17.9 km/h 41 % 0 mm
10:28 -5.4 °C -13.4 °C 34256.2 hPa West 15 km/h 15 km/h 40 % 0 mm
10:33 -5.6 °C -13.7 °C 34256.2 hPa NW 23.8 km/h 23.8 km/h 39 % 0 mm
10:38 -5.3 °C -13.4 °C 34256.2 hPa West 20.9 km/h 20.9 km/h 39 % 0 mm
10:43 -5.4 °C -13.7 °C 34293.4 hPa SW 11.9 km/h 15.3 km/h 38 % 0 mm
10:48 -5.4 °C -13.8 °C 34293.4 hPa WSW 20.9 km/h 20.9 km/h 38 % 0 mm
10:53 -5.3 °C -13.7 °C 34293.4 hPa West 20.9 km/h 20.9 km/h 38 % 0 mm
10:58 -5.3 °C -13.9 °C 34256.2 hPa WNW 17.9 km/h 17.9 km/h 37 % 0 mm
11:03 -5.2 °C -13.7 °C 34256.2 hPa WNW 12.2 km/h 12.2 km/h 37 % 0 mm
11:08 -4.9 °C -13.8 °C 34256.2 hPa WSW 9 km/h 9 km/h 36 % 0 mm
11:13 -4.9 °C -13.8 °C 34256.2 hPa SW 17.9 km/h 17.9 km/h 36 % 0 mm
11:18 -4.7 °C -13.6 °C 34256.2 hPa West 22.5 km/h 22.5 km/h 36 % 0 mm
11:23 -4.7 °C -13.8 °C 34256.2 hPa SW 20.9 km/h 20.9 km/h 35 % 0 mm
11:28 -4.6 °C -13.7 °C 34256.2 hPa NE 17.9 km/h 17.9 km/h 35 % 0 mm
11:33 -4.4 °C -13.5 °C 34256.2 hPa NW 9 km/h 9 km/h 35 % 0 mm
11:38 -4.4 °C -13.6 °C 34256.2 hPa WSW 20.9 km/h 20.9 km/h 35 % 0 mm
11:43 -4.5 °C -13.8 °C 34256.2 hPa WNW 20.9 km/h 20.9 km/h 34 % 0 mm
11:48 -4.4 °C -13.7 °C 34256.2 hPa West 11.9 km/h 11.9 km/h 34 % 0 mm
11:53 -4.5 °C -14.1 °C 34256.2 hPa SW 15 km/h 15 km/h 33 % 0 mm
11:58 -4.3 °C -13.7 °C 34256.2 hPa WSW 11.9 km/h 11.9 km/h 34 % 0 mm
12:03 -3.9 °C -13.4 °C 34256.2 hPa SSW 11.9 km/h 11.9 km/h 34 % 0 mm
12:08 -4.1 °C -13.4 °C 34256.2 hPa South 15 km/h 15 km/h 34 % 0 mm
12:13 -3.9 °C -13.8 °C 34256.2 hPa WSW 15 km/h 15 km/h 32 % 0 mm
12:18 -3.9 °C -13.8 °C 34256.2 hPa West 9 km/h 9 km/h 32 % 0 mm
12:23 -3.7 °C -13.7 °C 34256.2 hPa NE 16.1 km/h 16.1 km/h 32 % 0 mm
12:28 -3.8 °C -14 °C 34256.2 hPa SW 17.9 km/h 17.9 km/h 31 % 0 mm
12:33 -3.8 °C -14 °C 34256.2 hPa NNE 9 km/h 9 km/h 31 % 0 mm
12:38 -3.5 °C -13.7 °C 34256.2 hPa West 14 km/h 14 km/h 31 % 0 mm
12:43 -3.8 °C -14.3 °C 34256.2 hPa NW 26.9 km/h 26.9 km/h 30 % 0 mm
12:48 -3.7 °C -14.4 °C 34256.2 hPa WSW 11.9 km/h 11.9 km/h 29 % 0 mm
12:53 -3.7 °C -14.1 °C 34256.2 hPa SW 19.6 km/h 19.6 km/h 30 % 0 mm
12:58 -3.8 °C -14.2 °C 34256.2 hPa ENE 17.9 km/h 17.9 km/h 30 % 0 mm
13:03 -3.9 °C -14.6 °C 34256.2 hPa West 19.6 km/h 19.6 km/h 29 % 0 mm
13:08 -3.9 °C -14.4 °C 34256.2 hPa WSW 9 km/h 9 km/h 30 % 0 mm
13:13 -3.6 °C -14.3 °C 34256.2 hPa SW 15 km/h 15 km/h 29 % 0 mm
13:18 -3.4 °C -14.2 °C 34256.2 hPa West 26.9 km/h 26.9 km/h 29 % 0 mm
13:23 -3.4 °C -14.2 °C 34256.2 hPa West 15.6 km/h 15.6 km/h 29 % 0 mm
13:28 -3.5 °C -14.3 °C 34256.2 hPa WSW 20.9 km/h 20.9 km/h 29 % 0 mm
13:33 -3.5 °C -14.6 °C 34256.2 hPa WSW 17.9 km/h 17.9 km/h 28 % 0 mm
13:38 -3.3 °C -14.4 °C 34256.2 hPa WSW 17.9 km/h 17.9 km/h 28 % 0 mm
13:43 -3.5 °C -14.6 °C 34256.2 hPa SW 17.9 km/h 17.9 km/h 28 % 0 mm
13:48 -3.4 °C -14.5 °C 34256.2 hPa NW 19.2 km/h 19.2 km/h 28 % 0 mm
13:53 -3.6 °C -14.6 °C 34256.2 hPa SW 23.8 km/h 23.8 km/h 28 % 0 mm
13:58 -3.4 °C -14.5 °C 34256.2 hPa SW 23.8 km/h 23.8 km/h 28 % 0 mm
14:00 -3.3 °C -14.4 °C 34256.2 hPa WNW 26.9 km/h 26.9 km/h 28 % 0 mm
14:05 -3.3 °C -14.4 °C 34256.2 hPa West 29.8 km/h 29.8 km/h 28 % 0 mm
14:10 -3.4 °C -14.8 °C 34256.2 hPa SW 23.8 km/h 23.8 km/h 27 % 0 mm
14:15 -3.2 °C -14.3 °C 34222.3 hPa WNW 9.3 km/h 9.3 km/h 28 % 0 mm
14:20 -3.1 °C -14.4 °C 34222.3 hPa West 19.6 km/h 19.6 km/h 27 % 0 mm
14:25 -3.2 °C -14.6 °C 34222.3 hPa West 23.3 km/h 23.3 km/h 27 % 0 mm
14:30 -3.2 °C -14.6 °C 34256.2 hPa West 15 km/h 15 km/h 27 % 0 mm
14:35 -3.2 °C -14.6 °C 34256.2 hPa West 23.8 km/h 23.8 km/h 27 % 0 mm
14:40 -3.1 °C -14.8 °C 34256.2 hPa West 15 km/h 15 km/h 26 % 0 mm
14:45 -3 °C -14.4 °C 34256.2 hPa SE 15 km/h 15 km/h 27 % 0 mm
14:50 -3.3 °C -15 °C 34256.2 hPa West 29.8 km/h 29.8 km/h 26 % 0 mm
14:55 -3.3 °C -14.9 °C 34256.2 hPa WSW 15 km/h 15.3 km/h 26 % 0 mm
15:00 -3.3 °C -15 °C 34256.2 hPa ENE 29.8 km/h 29.8 km/h 26 % 0 mm
15:05 -3.2 °C -14.8 °C 34256.2 hPa WNW 32.8 km/h 32.8 km/h 26 % 0 mm
15:10 -3.1 °C -14.8 °C 34256.2 hPa West 17.9 km/h 17.9 km/h 26 % 0 mm
15:15 -3.3 °C -14.9 °C 34256.2 hPa SW 44.7 km/h 44.7 km/h 26 % 0 mm
15:20 -3 °C -14.7 °C 34256.2 hPa SW 26.9 km/h 26.9 km/h 26 % 0 mm
15:25 -2.9 °C -14.6 °C 34256.2 hPa WSW 20.9 km/h 20.9 km/h 26 % 0 mm
15:30 -2.7 °C -14.5 °C 34256.2 hPa SSW 26.9 km/h 26.9 km/h 26 % 0 mm
15:35 -2.9 °C -14.6 °C 34256.2 hPa WSW 20.9 km/h 20.9 km/h 26 % 0 mm
15:40 -2.8 °C -14.9 °C 34256.2 hPa WSW 26.9 km/h 26.9 km/h 25 % 0 mm
15:45 -2.7 °C -14.5 °C 34256.2 hPa WSW 15.6 km/h 15.6 km/h 26 % 0 mm
15:50 -2.8 °C -14.9 °C 34256.2 hPa West 23.8 km/h 23.8 km/h 25 % 0 mm
15:55 -2.7 °C -14.8 °C 34256.2 hPa NW 15 km/h 15 km/h 25 % 0 mm
16:00 -2.9 °C -14.9 °C 34256.2 hPa NNW 29.8 km/h 29.8 km/h 25 % 0 mm
16:05 -2.7 °C -14.8 °C 34256.2 hPa WSW 15 km/h 15 km/h 25 % 0 mm
16:10 -2.6 °C -14.3 °C 34256.2 hPa West 15.6 km/h 15.6 km/h 26 % 0 mm
16:15 -2.6 °C -14.7 °C 34256.2 hPa NW 20.9 km/h 20.9 km/h 25 % 0 mm
16:20 -2.8 °C -14.9 °C 34256.2 hPa NNW 15 km/h 15 km/h 25 % 0 mm
16:25 -3.1 °C -15.1 °C 34256.2 hPa West 15 km/h 15 km/h 25 % 0 mm
16:30 -2.8 °C -14.8 °C 34222.3 hPa West 17.9 km/h 17.9 km/h 25 % 0 mm
16:35 -2.8 °C -14.8 °C 34222.3 hPa SW 23.8 km/h 23.8 km/h 25 % 0 mm
16:40 -2.6 °C -14.4 °C 34222.3 hPa ENE 15 km/h 15 km/h 26 % 0 mm
16:45 -2.6 °C -14.3 °C 34222.3 hPa WSW 15 km/h 15 km/h 26 % 0 mm
16:50 -2.4 °C -14.2 °C 34222.3 hPa SW 26.9 km/h 26.9 km/h 26 % 0 mm
16:55 -2.8 °C -14.6 °C 34222.3 hPa SW 26.9 km/h 26.9 km/h 26 % 0 mm
17:00 -2.6 °C -14.4 °C 34222.3 hPa SW 15.3 km/h 15.3 km/h 26 % 0 mm
17:05 -2.7 °C -14.5 °C 34222.3 hPa West 26.9 km/h 26.9 km/h 26 % 0 mm
17:06 -2.7 °C -14.5 °C 34222.3 hPa WSW 14 km/h 14 km/h 26 % 0 mm
17:11 -2.6 °C -14.4 °C 34222.3 hPa SW 29.8 km/h 29.8 km/h 26 % 0 mm
17:16 -2.6 °C -14.4 °C 34222.3 hPa NW 15 km/h 15 km/h 26 % 0 mm
17:21 -2.7 °C -14.4 °C 34222.3 hPa West 17.9 km/h 17.9 km/h 26 % 0 mm
17:26 -2.7 °C -14.4 °C 34198.6 hPa SSE 23.8 km/h 23.8 km/h 26 % 0 mm
17:31 -2.5 °C -14.3 °C 34198.6 hPa WSW 20.3 km/h 20.3 km/h 26 % 0 mm
17:36 -2.8 °C -14.6 °C 34198.6 hPa SSW 23.8 km/h 23.8 km/h 26 % 0 mm
17:41 -2.8 °C -14.6 °C 34222.3 hPa West 17.9 km/h 17.9 km/h 26 % 0 mm
17:46 -3 °C -14.7 °C 34222.3 hPa SSW 23.8 km/h 23.8 km/h 26 % 0 mm
17:51 -3 °C -14.7 °C 34222.3 hPa WSW 17.9 km/h 17.9 km/h 26 % 0 mm
17:56 -2.8 °C -14.6 °C 34222.3 hPa South 17.9 km/h 17.9 km/h 26 % 0 mm
18:01 -2.9 °C -14.7 °C 34222.3 hPa WSW 20.9 km/h 20.9 km/h 26 % 0 mm
18:06 -2.7 °C -14.5 °C 34222.3 hPa West 15 km/h 15 km/h 26 % 0 mm
18:11 -3.1 °C -14.8 °C 34222.3 hPa WSW 32.8 km/h 32.8 km/h 26 % 0 mm
18:16 -3.4 °C -15.1 °C 34222.3 hPa WSW 32.8 km/h 32.8 km/h 26 % 0 mm
18:21 -3.1 °C -14.8 °C 34222.3 hPa WNW 19.6 km/h 19.6 km/h 26 % 0 mm
18:26 -3.3 °C -15 °C 34222.3 hPa SSW 26.9 km/h 26.9 km/h 26 % 0 mm
18:31 -3.4 °C -15.1 °C 34222.3 hPa West 38.8 km/h 38.8 km/h 26 % 0 mm
18:36 -3.6 °C -15.2 °C 34222.3 hPa WNW 32.8 km/h 32.8 km/h 26 % 0 mm
18:41 -3.4 °C -15.1 °C 34256.2 hPa SW 15 km/h 15.3 km/h 26 % 0 mm
18:46 -3.5 °C -15.2 °C 34256.2 hPa South 29.8 km/h 29.8 km/h 26 % 0 mm
18:51 -3.7 °C -15.3 °C 34256.2 hPa SE 23.8 km/h 23.8 km/h 26 % 0 mm
18:56 -3.7 °C -15.3 °C 34222.3 hPa SW 17.9 km/h 17.9 km/h 26 % 0 mm
19:01 -3.8 °C -15.4 °C 34222.3 hPa WSW 23.8 km/h 23.8 km/h 26 % 0 mm
19:06 -3.8 °C -15.1 °C 34222.3 hPa SW 15 km/h 15 km/h 27 % 0 mm
19:11 -3.8 °C -15.1 °C 34222.3 hPa NW 11.9 km/h 11.9 km/h 27 % 0 mm
19:12 -3.8 °C -15.1 °C 34222.3 hPa WSW 15 km/h 15 km/h 27 % 0 mm
19:15 -7.2 °C -14.5 °C 34395 hPa NE 7.7 km/h 15.6 km/h 42 % 0 mm
19:17 -3.7 °C -15.1 °C 34222.3 hPa SW 15 km/h 15 km/h 27 % 0 mm
19:22 -3.8 °C -15.1 °C 34222.3 hPa WSW 11.9 km/h 11.9 km/h 27 % 0 mm
19:23 -3.8 °C -15.1 °C 34222.3 hPa West 14.5 km/h 14.5 km/h 27 % 0 mm
19:25 -7.3 °C -14.1 °C 34395 hPa NE 5.1 km/h 10.3 km/h 45 % 0 mm
19:28 -3.8 °C -15.1 °C 34256.2 hPa SW 14 km/h 14 km/h 27 % 0 mm
19:33 -3.8 °C -15.1 °C 34256.2 hPa SW 19.6 km/h 19.6 km/h 27 % 0 mm
19:35 -7.4 °C -14.1 °C 34361.1 hPa East 12.9 km/h 12.9 km/h 46 % 0 mm
19:38 -3.9 °C -15.2 °C 34256.2 hPa SW 23.8 km/h 23.8 km/h 27 % 0 mm
19:43 -3.9 °C -14.9 °C 34256.2 hPa West 22 km/h 22 km/h 28 % 0 mm
19:48 -4 °C -14.9 °C 34256.2 hPa SW 23.8 km/h 23.8 km/h 28 % 0 mm
19:53 -4 °C -14.9 °C 34256.2 hPa SSW 11.9 km/h 11.9 km/h 28 % 0 mm
19:55 -7.6 °C -13.9 °C 34395 hPa ENE 7.7 km/h 10.3 km/h 47 % 0 mm
19:58 -4.1 °C -15.1 °C 34256.2 hPa SW 29.8 km/h 29.8 km/h 28 % 0 mm
20:03 -4.1 °C -15.1 °C 34256.2 hPa WSW 17.9 km/h 17.9 km/h 28 % 0 mm
20:05 -7.6 °C -13.8 °C 34395 hPa NE 7.7 km/h 12.9 km/h 48 % 0 mm
20:08 -4.3 °C -15.2 °C 34256.2 hPa West 20.9 km/h 20.9 km/h 28 % 0 mm
20:13 -4.3 °C -15.2 °C 34256.2 hPa NNW 15 km/h 15 km/h 28 % 0 mm
20:15 -7.7 °C -13.8 °C 34395 hPa NE 7.7 km/h 7.7 km/h 49 % 0 mm
20:23 -4.5 °C -15.4 °C 34256.2 hPa West 15 km/h 15 km/h 28 % 0 mm
20:25 -7.8 °C -13.8 °C 34361.1 hPa NE 12.9 km/h 12.9 km/h 49 % 0 mm
20:28 -4.6 °C -15.4 °C 34256.2 hPa WSW 15 km/h 15 km/h 28 % 0 mm
20:33 -4.7 °C -15.3 °C 34256.2 hPa WSW 15 km/h 15 km/h 29 % 0 mm
20:35 -7.8 °C -13.9 °C 34395 hPa NE 5.1 km/h 12.9 km/h 49 % 0 mm
20:38 -4.8 °C -15.4 °C 34256.2 hPa WSW 15 km/h 15 km/h 29 % 0 mm
20:43 -4.8 °C -15.4 °C 34256.2 hPa West 9 km/h 9 km/h 29 % 0 mm
20:45 -7.9 °C -13.8 °C 34395 hPa NE 2.6 km/h 5.1 km/h 50 % 0 mm
20:48 -4.8 °C -15.4 °C 34256.2 hPa WSW 6 km/h 6 km/h 29 % 0 mm
20:53 -4.9 °C -15.4 °C 34256.2 hPa SW 6 km/h 6 km/h 29 % 0 mm
20:55 -8.1 °C -13.9 °C 34395 hPa Calm   2.6 km/h 50 % 0 mm
20:58 -4.9 °C -15.4 °C 34256.2 hPa WSW 4.2 km/h 4.2 km/h 29 % 0 mm
21:03 -4.9 °C -15.5 °C 34256.2 hPa SSW 11.9 km/h 11.9 km/h 29 % 0 mm
21:05 -8.1 °C -13.9 °C 34395 hPa NE 5.1 km/h 5.1 km/h 50 % 0 mm
21:08 -5 °C -15.6 °C 34256.2 hPa WNW 15 km/h 15 km/h 29 % 0 mm
21:13 -5.1 °C -15.3 °C 34293.4 hPa South 6 km/h 6 km/h 30 % 0 mm
21:15 -8.3 °C -14.1 °C 34395 hPa Calm   2.6 km/h 50 % 0 mm
21:18 -5.1 °C -15.3 °C 34293.4 hPa ESE 6 km/h 6 km/h 30 % 0 mm
21:23 -5.1 °C -15.4 °C 34293.4 hPa SW 11.9 km/h 11.9 km/h 30 % 0 mm
21:25 -8.4 °C -13.9 °C 34395 hPa Calm   5.1 km/h 52 % 0 mm
21:28 -5.2 °C -15.4 °C 34327.3 hPa West 15 km/h 15 km/h 30 % 0 mm
21:33 -5.3 °C -15.5 °C 34327.3 hPa WSW 11.9 km/h 11.9 km/h 30 % 0 mm
21:35 -8.5 °C -14 °C 34395 hPa WSW 2.6 km/h 5.1 km/h 52 % 0 mm
21:38 -5.3 °C -15.6 °C 34327.3 hPa North 11.9 km/h 11.9 km/h 30 % 0 mm
21:43 -5.3 °C -15.6 °C 34327.3 hPa WSW 6 km/h 6 km/h 30 % 0 mm
21:45 -8.4 °C -14.1 °C 34395 hPa WSW 2.6 km/h 5.1 km/h 51 % 0 mm
21:48 -5.4 °C -15.4 °C 34327.3 hPa West 6 km/h 6 km/h 31 % 0 mm
21:53 -5.4 °C -15.4 °C 34327.3 hPa WSW 9 km/h 9 km/h 31 % 0 mm
21:55 -8.4 °C -14.1 °C 34395 hPa WSW 2.6 km/h 5.1 km/h 51 % 0 mm
21:58 -5.5 °C -15.4 °C 34327.3 hPa SSE 11.9 km/h 11.9 km/h 31 % 0 mm
22:05 -8.4 °C -13.9 °C 34395 hPa Calm   7.7 km/h 52 % 0 mm
22:08 -5.6 °C -15.6 °C 34327.3 hPa SW 15 km/h 15 km/h 31 % 0 mm
22:13 -5.7 °C -15.6 °C 34327.3 hPa WSW 9 km/h 9 km/h 31 % 0 mm
22:15 -8.4 °C -14.2 °C 34395 hPa WSW 5.1 km/h 7.7 km/h 50 % 0 mm
22:18 -5.7 °C -15.7 °C 34327.3 hPa WSW 9 km/h 9 km/h 31 % 0 mm
22:23 -5.8 °C -15.7 °C 34327.3 hPa WSW 6.3 km/h 6.3 km/h 31 % 0 mm
22:25 -8.4 °C -14.4 °C 34395 hPa Calm   5.1 km/h 49 % 0 mm
22:28 -5.8 °C -15.7 °C 34361.1 hPa West 6.3 km/h 6.3 km/h 31 % 0 mm
22:33 -5.9 °C -15.6 °C 34361.1 hPa SW 16.6 km/h 16.6 km/h 32 % 0 mm
22:35 -8.4 °C -14.4 °C 34395 hPa SW 7.7 km/h 7.7 km/h 49 % 0 mm
22:38 -5.9 °C -15.6 °C 34361.1 hPa West 6 km/h 6 km/h 32 % 0 mm
22:43 -5.9 °C -15.6 °C 34361.1 hPa WSW 6.3 km/h 6.3 km/h 32 % 0 mm
22:45 -8.6 °C -14.4 °C 34395 hPa WSW 2.6 km/h 7.7 km/h 50 % 0 mm
22:48 -5.9 °C -15.6 °C 34361.1 hPa West 15.3 km/h 15.3 km/h 32 % 0 mm
22:55 -8.6 °C -14.6 °C 34395 hPa West 2.6 km/h 5.1 km/h 49 % 0 mm
22:58 -6 °C -15.7 °C 34361.1 hPa West 12.7 km/h 12.7 km/h 32 % 0 mm
23:03 -6.1 °C -15.7 °C 34361.1 hPa SW 6 km/h 6 km/h 32 % 0 mm
23:05 -8.6 °C -14.7 °C 34395 hPa West 7.7 km/h 7.7 km/h 48 % 0 mm
23:08 -6.1 °C -15.7 °C 34361.1 hPa WNW 6 km/h 6 km/h 32 % 0 mm
23:13 -6.1 °C -15.7 °C 34361.1 hPa WNW 6 km/h 6 km/h 32 % 0 mm
23:15 -8.8 °C -14.9 °C 34395 hPa SW 2.6 km/h 7.7 km/h 48 % 0 mm
23:18 -6.1 °C -15.5 °C 34361.1 hPa West 5.1 km/h 5.1 km/h 33 % 0 mm
23:23 -6.1 °C -15.5 °C 34361.1 hPa SW 6 km/h 6 km/h 33 % 0 mm
23:24 -6.1 °C -15.5 °C 34361.1 hPa SW 6 km/h 6 km/h 33 % 0 mm
23:25 -8.8 °C -14.9 °C 34395 hPa SSW 2.6 km/h 7.7 km/h 48 % 0 mm
23:29 -6.2 °C -15.6 °C 34361.1 hPa NW 9 km/h 9 km/h 33 % 0 mm
23:34 -6.2 °C -15.6 °C 34361.1 hPa NNW 6.3 km/h   33 % 0 mm
23:35 -8.7 °C -14.8 °C 34395 hPa SW 5.1 km/h 12.9 km/h 48 % 0 mm
23:39 -6.3 °C -15.4 °C 34361.1 hPa West 3.1 km/h   34 % 0 mm
23:44 -6.4 °C -15.3 °C 34395 hPa ESE 15.6 km/h 15.6 km/h 35 % 0 mm
23:45 -8.7 °C -14.9 °C 34395 hPa SW 2.6 km/h 7.7 km/h 47 % 0 mm
23:49 -6.7 °C -14.7 °C 34395 hPa East 11.9 km/h 11.9 km/h 39 % 0 mm
23:54 -6.8 °C -14.6 °C 34395 hPa NNE 8 km/h 8 km/h 40 % 0 mm
23:55 -8.7 °C -14.9 °C 34395 hPa WSW 7.7 km/h 7.7 km/h 47 % 0 mm
23:59 -6.9 °C -14.5 °C 34395 hPa NE 6.3 km/h 6.3 km/h 41 % 0 mm
Meteo Sesrovires
Elogis d' Weather Underground - 3.75 mb

Guio original per  Jim McMurry - jmcmurry@mwt.net Adaptat per a la plantilla per  Wim van der Kuil - Leuven-Template.eu

Trobareu la nostra informacio del temps tambe a:

Weather Underground

AWEKAS